sensor_id;sensor_type;location;lat;lon;timestamp;pressure;altitude;pressure_sealevel;temperature;humidity
10720;BME280;5411;58.386;15.560;2023-01-25T00:02:26;101736.75;;;5.31;100.00
10720;BME280;5411;58.386;15.560;2023-01-25T00:04:55;101728.50;;;5.34;100.00
10720;BME280;5411;58.386;15.560;2023-01-25T00:07:23;101728.34;;;5.36;100.00
10720;BME280;5411;58.386;15.560;2023-01-25T00:09:51;101729.19;;;5.36;100.00
10720;BME280;5411;58.386;15.560;2023-01-25T00:12:20;101735.34;;;5.37;100.00
10720;BME280;5411;58.386;15.560;2023-01-25T00:14:48;101726.41;;;5.38;100.00
10720;BME280;5411;58.386;15.560;2023-01-25T00:17:18;101728.22;;;5.37;100.00
10720;BME280;5411;58.386;15.560;2023-01-25T00:19:48;101721.94;;;5.38;100.00
10720;BME280;5411;58.386;15.560;2023-01-25T00:22:16;101714.81;;;5.39;100.00
10720;BME280;5411;58.386;15.560;2023-01-25T00:24:45;101720.00;;;5.41;100.00
10720;BME280;5411;58.386;15.560;2023-01-25T00:27:14;101716.38;;;5.42;100.00
10720;BME280;5411;58.386;15.560;2023-01-25T00:29:52;101720.00;;;5.41;100.00
10720;BME280;5411;58.386;15.560;2023-01-25T00:32:40;101704.06;;;5.41;100.00
10720;BME280;5411;58.386;15.560;2023-01-25T00:35:10;101693.59;;;5.39;100.00
10720;BME280;5411;58.386;15.560;2023-01-25T00:37:42;101700.72;;;5.38;100.00
10720;BME280;5411;58.386;15.560;2023-01-25T00:40:11;101686.59;;;5.38;100.00
10720;BME280;5411;58.386;15.560;2023-01-25T00:42:41;101687.44;;;5.38;100.00
10720;BME280;5411;58.386;15.560;2023-01-25T00:45:10;101684.78;;;5.38;100.00
10720;BME280;5411;58.386;15.560;2023-01-25T00:47:40;101685.75;;;5.37;100.00
10720;BME280;5411;58.386;15.560;2023-01-25T00:50:10;101691.06;;;5.37;100.00
10720;BME280;5411;58.386;15.560;2023-01-25T00:52:38;101689.97;;;5.40;100.00
10720;BME280;5411;58.386;15.560;2023-01-25T00:55:07;101685.38;;;5.42;100.00
10720;BME280;5411;58.386;15.560;2023-01-25T00:57:38;101688.72;;;5.44;100.00
10720;BME280;5411;58.386;15.560;2023-01-25T01:00:07;101685.09;;;5.45;100.00
10720;BME280;5411;58.386;15.560;2023-01-25T01:02:36;101673.47;;;5.46;100.00
10720;BME280;5411;58.386;15.560;2023-01-25T01:05:07;101671.53;;;5.48;100.00
10720;BME280;5411;58.386;15.560;2023-01-25T01:07:37;101664.41;;;5.49;100.00
10720;BME280;5411;58.386;15.560;2023-01-25T01:10:06;101657.44;;;5.48;100.00
10720;BME280;5411;58.386;15.560;2023-01-25T01:12:35;101665.25;;;5.49;100.00
10720;BME280;5411;58.386;15.560;2023-01-25T01:15:04;101660.66;;;5.51;100.00
10720;BME280;5411;58.386;15.560;2023-01-25T01:17:33;101643.75;;;5.52;100.00
10720;BME280;5411;58.386;15.560;2023-01-25T01:20:01;101643.63;;;5.54;100.00
10720;BME280;5411;58.386;15.560;2023-01-25T01:22:31;101654.81;;;5.57;100.00
10720;BME280;5411;58.386;15.560;2023-01-25T01:25:00;101656.47;;;5.58;100.00
10720;BME280;5411;58.386;15.560;2023-01-25T01:27:31;101647.38;;;5.61;100.00
10720;BME280;5411;58.386;15.560;2023-01-25T01:30:00;101632.44;;;5.60;100.00
10720;BME280;5411;58.386;15.560;2023-01-25T01:32:28;101635.91;;;5.60;100.00
10720;BME280;5411;58.386;15.560;2023-01-25T01:34:58;101637.47;;;5.63;100.00
10720;BME280;5411;58.386;15.560;2023-01-25T01:37:26;101633.69;;;5.65;100.00
10720;BME280;5411;58.386;15.560;2023-01-25T01:39:56;101632.59;;;5.68;100.00
10720;BME280;5411;58.386;15.560;2023-01-25T01:42:25;101633.16;;;5.71;100.00
10720;BME280;5411;58.386;15.560;2023-01-25T01:44:54;101620.72;;;5.72;100.00
10720;BME280;5411;58.386;15.560;2023-01-25T01:47:25;101620.56;;;5.73;100.00
10720;BME280;5411;58.386;15.560;2023-01-25T01:50:00;101607.97;;;5.76;100.00
10720;BME280;5411;58.386;15.560;2023-01-25T01:52:32;101613.16;;;5.77;100.00
10720;BME280;5411;58.386;15.560;2023-01-25T01:55:07;101619.31;;;5.78;100.00
10720;BME280;5411;58.386;15.560;2023-01-25T01:57:40;101612.88;;;5.80;100.00
10720;BME280;5411;58.386;15.560;2023-01-25T02:00:14;101609.25;;;5.81;100.00
10720;BME280;5411;58.386;15.560;2023-01-25T02:02:57;101595.84;;;5.83;100.00
10720;BME280;5411;58.386;15.560;2023-01-25T02:05:31;101601.00;;;5.84;100.00
10720;BME280;5411;58.386;15.560;2023-01-25T02:08:02;101593.56;;;5.88;100.00
10720;BME280;5411;58.386;15.560;2023-01-25T02:10:32;101591.78;;;5.88;100.00
10720;BME280;5411;58.386;15.560;2023-01-25T02:13:02;101594.31;;;5.90;100.00
10720;BME280;5411;58.386;15.560;2023-01-25T02:15:35;101580.03;;;5.91;100.00
10720;BME280;5411;58.386;15.560;2023-01-25T02:18:07;101574.72;;;5.91;100.00
10720;BME280;5411;58.386;15.560;2023-01-25T02:20:38;101582.69;;;5.91;100.00
10720;BME280;5411;58.386;15.560;2023-01-25T02:23:13;101571.09;;;5.92;100.00
10720;BME280;5411;58.386;15.560;2023-01-25T02:25:45;101580.03;;;5.91;100.00
10720;BME280;5411;58.386;15.560;2023-01-25T02:28:17;101575.56;;;5.91;100.00
10720;BME280;5411;58.386;15.560;2023-01-25T02:30:48;101565.66;;;5.93;100.00
10720;BME280;5411;58.386;15.560;2023-01-25T02:33:16;101568.31;;;5.93;100.00
10720;BME280;5411;58.386;15.560;2023-01-25T02:35:46;101556.97;;;5.91;100.00
10720;BME280;5411;58.386;15.560;2023-01-25T02:38:17;101557.97;;;5.90;100.00
10720;BME280;5411;58.386;15.560;2023-01-25T02:40:52;101557.97;;;5.90;100.00
10720;BME280;5411;58.386;15.560;2023-01-25T02:43:27;101555.44;;;5.89;100.00
10720;BME280;5411;58.386;15.560;2023-01-25T02:49:23;101546.75;;;5.87;100.00
10720;BME280;5411;58.386;15.560;2023-01-25T02:51:53;101542.44;;;5.86;100.00
10720;BME280;5411;58.386;15.560;2023-01-25T02:54:24;101544.53;;;5.82;100.00
10720;BME280;5411;58.386;15.560;2023-01-25T02:56:54;101552.50;;;5.82;100.00
10720;BME280;5411;58.386;15.560;2023-01-25T02:59:23;101550.13;;;5.79;100.00
10720;BME280;5411;58.386;15.560;2023-01-25T03:01:51;101542.88;;;5.81;100.00
10720;BME280;5411;58.386;15.560;2023-01-25T03:04:20;101545.53;;;5.81;100.00
10720;BME280;5411;58.386;15.560;2023-01-25T03:06:48;101541.88;;;5.82;100.00
10720;BME280;5411;58.386;15.560;2023-01-25T03:09:21;101532.25;;;5.81;100.00
10720;BME280;5411;58.386;15.560;2023-01-25T03:11:49;101535.72;;;5.82;100.00
10720;BME280;5411;58.386;15.560;2023-01-25T03:14:19;101533.78;;;5.84;100.00
10720;BME280;5411;58.386;15.560;2023-01-25T03:16:47;101523.00;;;5.85;100.00
10720;BME280;5411;58.386;15.560;2023-01-25T03:19:16;101524.66;;;5.86;100.00
10720;BME280;5411;58.386;15.560;2023-01-25T03:21:44;101530.81;;;5.87;100.00
10720;BME280;5411;58.386;15.560;2023-01-25T03:24:13;101515.59;;;5.89;100.00
10720;BME280;5411;58.386;15.560;2023-01-25T03:26:42;101521.88;;;5.88;100.00
10720;BME280;5411;58.386;15.560;2023-01-25T03:29:30;101520.78;;;5.90;100.00
10720;BME280;5411;58.386;15.560;2023-01-25T03:31:59;101514.50;;;5.91;100.00
10720;BME280;5411;58.386;15.560;2023-01-25T03:34:27;101510.72;;;5.94;100.00
10720;BME280;5411;58.386;15.560;2023-01-25T03:36:56;101501.91;;;5.93;100.00
10720;BME280;5411;58.386;15.560;2023-01-25T03:39:25;101500.09;;;5.94;100.00
10720;BME280;5411;58.386;15.560;2023-01-25T03:41:54;101497.16;;;5.97;100.00
10720;BME280;5411;58.386;15.560;2023-01-25T03:44:23;101489.88;;;5.99;100.00
10720;BME280;5411;58.386;15.560;2023-01-25T03:46:53;101488.88;;;6.00;100.00
10720;BME280;5411;58.386;15.560;2023-01-25T03:49:21;101491.25;;;6.03;100.00
10720;BME280;5411;58.386;15.560;2023-01-25T03:51:51;101481.59;;;6.02;100.00
10720;BME280;5411;58.386;15.560;2023-01-25T03:54:21;101479.63;;;6.04;100.00
10720;BME280;5411;58.386;15.560;2023-01-25T03:56:49;101477.97;;;6.03;100.00
10720;BME280;5411;58.386;15.560;2023-01-25T03:59:19;101456.84;;;6.01;100.00
10720;BME280;5411;58.386;15.560;2023-01-25T04:01:47;101458.53;;;6.02;100.00
10720;BME280;5411;58.386;15.560;2023-01-25T04:04:17;101457.69;;;6.02;100.00
10720;BME280;5411;58.386;15.560;2023-01-25T04:06:48;101449.59;;;6.03;100.00
10720;BME280;5411;58.386;15.560;2023-01-25T04:09:18;101445.25;;;6.02;100.00
10720;BME280;5411;58.386;15.560;2023-01-25T04:11:48;101457.00;;;6.00;100.00
10720;BME280;5411;58.386;15.560;2023-01-25T04:14:17;101450.69;;;6.01;100.00
10720;BME280;5411;58.386;15.560;2023-01-25T04:17:04;101450.56;;;6.02;100.00
10720;BME280;5411;58.386;15.560;2023-01-25T04:19:35;101449.88;;;6.00;100.00
10720;BME280;5411;58.386;15.560;2023-01-25T04:22:03;101448.88;;;6.01;100.00
10720;BME280;5411;58.386;15.560;2023-01-25T04:27:19;101443.44;;;6.03;100.00
10720;BME280;5411;58.386;15.560;2023-01-25T04:29:47;101438.81;;;6.05;100.00
10720;BME280;5411;58.386;15.560;2023-01-25T04:32:16;101445.81;;;6.06;100.00
10720;BME280;5411;58.386;15.560;2023-01-25T04:34:46;101439.66;;;6.05;100.00
10720;BME280;5411;58.386;15.560;2023-01-25T04:37:15;101432.66;;;6.04;100.00
10720;BME280;5411;58.386;15.560;2023-01-25T04:39:43;101434.47;;;6.04;100.00
10720;BME280;5411;58.386;15.560;2023-01-25T04:42:12;101435.47;;;6.03;100.00
10720;BME280;5411;58.386;15.560;2023-01-25T04:44:43;101425.53;;;6.05;100.00
10720;BME280;5411;58.386;15.560;2023-01-25T04:47:12;101426.91;;;6.09;100.00
10720;BME280;5411;58.386;15.560;2023-01-25T04:49:40;101423.56;;;6.07;100.00
10720;BME280;5411;58.386;15.560;2023-01-25T04:52:10;101417.41;;;6.06;100.00
10720;BME280;5411;58.386;15.560;2023-01-25T04:54:38;101422.59;;;6.08;100.00
10720;BME280;5411;58.386;15.560;2023-01-25T04:57:08;101421.88;;;6.06;100.00
10720;BME280;5411;58.386;15.560;2023-01-25T04:59:36;101416.56;;;6.06;100.00
10720;BME280;5411;58.386;15.560;2023-01-25T05:02:04;101416.56;;;6.06;100.00
10720;BME280;5411;58.386;15.560;2023-01-25T05:04:33;101412.25;;;6.05;100.00
10720;BME280;5411;58.386;15.560;2023-01-25T05:07:06;101411.41;;;6.04;100.00
10720;BME280;5411;58.386;15.560;2023-01-25T05:09:36;101408.06;;;6.02;100.00
10720;BME280;5411;58.386;15.560;2023-01-25T05:12:05;101405.53;;;6.01;100.00
10720;BME280;5411;58.386;15.560;2023-01-25T05:14:37;101390.78;;;5.98;100.00
10720;BME280;5411;58.386;15.560;2023-01-25T05:17:07;101391.59;;;5.99;100.00
10720;BME280;5411;58.386;15.560;2023-01-25T05:19:39;101390.78;;;5.98;100.00
10720;BME280;5411;58.386;15.560;2023-01-25T05:22:11;101396.06;;;5.98;100.00
10720;BME280;5411;58.386;15.560;2023-01-25T05:24:43;101391.06;;;5.95;100.00
10720;BME280;5411;58.386;15.560;2023-01-25T05:27:13;101395.25;;;5.98;100.00
10720;BME280;5411;58.386;15.560;2023-01-25T05:29:42;101393.44;;;5.98;100.00
10720;BME280;5411;58.386;15.560;2023-01-25T05:32:13;101388.78;;;6.00;100.00
10720;BME280;5411;58.386;15.560;2023-01-25T05:34:42;101392.25;;;6.01;100.00
10720;BME280;5411;58.386;15.560;2023-01-25T05:37:12;101383.22;;;5.94;100.00
10720;BME280;5411;58.386;15.560;2023-01-25T05:40:10;101375.97;;;5.96;100.00
10720;BME280;5411;58.386;15.560;2023-01-25T05:42:39;101378.75;;;5.94;100.00
10720;BME280;5411;58.386;15.560;2023-01-25T05:45:09;101386.88;;;5.93;100.00
10720;BME280;5411;58.386;15.560;2023-01-25T05:47:37;101386.88;;;5.93;100.00
10720;BME280;5411;58.386;15.560;2023-01-25T05:50:08;101374.84;;;5.89;100.00
10720;BME280;5411;58.386;15.560;2023-01-25T05:52:36;101376.53;;;5.90;100.00
10720;BME280;5411;58.386;15.560;2023-01-25T05:55:05;101380.88;;;5.91;100.00
10720;BME280;5411;58.386;15.560;2023-01-25T05:57:35;101386.31;;;5.89;100.00
10720;BME280;5411;58.386;15.560;2023-01-25T06:00:06;101376.53;;;5.90;100.00
10720;BME280;5411;58.386;15.560;2023-01-25T06:02:34;101378.22;;;5.91;100.00
10720;BME280;5411;58.386;15.560;2023-01-25T06:05:04;101378.06;;;5.92;100.00
10720;BME280;5411;58.386;15.560;2023-01-25T06:07:33;101377.22;;;5.92;100.00
10720;BME280;5411;58.386;15.560;2023-01-25T06:10:03;101379.19;;;5.90;100.00
10720;BME280;5411;58.386;15.560;2023-01-25T06:12:36;101377.38;;;5.90;100.00
10720;BME280;5411;58.386;15.560;2023-01-25T06:15:06;101373.16;;;5.88;100.00
10720;BME280;5411;58.386;15.560;2023-01-25T06:17:35;101371.78;;;5.84;100.00
10720;BME280;5411;58.386;15.560;2023-01-25T06:20:05;101374.59;;;5.82;100.00
10720;BME280;5411;58.386;15.560;2023-01-25T06:22:34;101373.63;;;5.83;100.00
10720;BME280;5411;58.386;15.560;2023-01-25T06:25:03;101362.16;;;5.83;100.00
10720;BME280;5411;58.386;15.560;2023-01-25T06:27:31;101369.13;;;5.84;100.00
10720;BME280;5411;58.386;15.560;2023-01-25T06:30:02;101359.09;;;5.78;100.00
10720;BME280;5411;58.386;15.560;2023-01-25T06:32:31;101361.16;;;5.84;100.00
10720;BME280;5411;58.386;15.560;2023-01-25T06:35:00;101362.16;;;5.83;100.00
10720;BME280;5411;58.386;15.560;2023-01-25T06:37:29;101365.78;;;5.82;100.00
10720;BME280;5411;58.386;15.560;2023-01-25T06:39:58;101364.13;;;5.81;100.00
10720;BME280;5411;58.386;15.560;2023-01-25T06:42:27;101349.16;;;5.80;100.00
10720;BME280;5411;58.386;15.560;2023-01-25T06:44:55;101345.13;;;5.76;100.00
10720;BME280;5411;58.386;15.560;2023-01-25T06:47:25;101347.78;;;5.76;100.00
10720;BME280;5411;58.386;15.560;2023-01-25T06:49:54;101343.44;;;5.74;100.00
10720;BME280;5411;58.386;15.560;2023-01-25T06:59:28;101330.03;;;5.76;100.00
10720;BME280;5411;58.386;15.560;2023-01-25T07:01:56;101319.56;;;5.74;100.00
10720;BME280;5411;58.386;15.560;2023-01-25T07:04:26;101317.88;;;5.73;100.00
10720;BME280;5411;58.386;15.560;2023-01-25T07:06:57;101304.78;;;5.72;100.00
10720;BME280;5411;58.386;15.560;2023-01-25T07:09:25;101319.56;;;5.74;100.00
10720;BME280;5411;58.386;15.560;2023-01-25T07:11:53;101307.25;;;5.73;100.00
10720;BME280;5411;58.386;15.560;2023-01-25T07:14:22;101305.44;;;5.74;100.00
10720;BME280;5411;58.386;15.560;2023-01-25T07:16:53;101311.31;;;5.78;100.00
10720;BME280;5411;58.386;15.560;2023-01-25T07:19:25;101301.38;;;5.80;100.00
10720;BME280;5411;58.386;15.560;2023-01-25T07:21:55;101306.53;;;5.81;100.00
10720;BME280;5411;58.386;15.560;2023-01-25T07:24:26;101307.53;;;5.80;100.00
10720;BME280;5411;58.386;15.560;2023-01-25T07:26:55;101309.34;;;5.80;100.00
10720;BME280;5411;58.386;15.560;2023-01-25T07:29:24;101303.03;;;5.81;100.00
10720;BME280;5411;58.386;15.560;2023-01-25T07:31:52;101298.03;;;5.78;100.00
10720;BME280;5411;58.386;15.560;2023-01-25T07:34:21;101295.22;;;5.79;100.00
10720;BME280;5411;58.386;15.560;2023-01-25T07:36:57;101290.06;;;5.78;100.00
10720;BME280;5411;58.386;15.560;2023-01-25T07:39:27;101294.53;;;5.77;100.00
10720;BME280;5411;58.386;15.560;2023-01-25T07:41:55;101280.72;;;5.73;100.00
10720;BME280;5411;58.386;15.560;2023-01-25T07:44:24;101272.91;;;5.72;100.00
10720;BME280;5411;58.386;15.560;2023-01-25T07:46:52;101268.28;;;5.74;100.00
10720;BME280;5411;58.386;15.560;2023-01-25T07:49:23;101261.47;;;5.71;100.00
10720;BME280;5411;58.386;15.560;2023-01-25T07:51:52;101255.47;;;5.69;100.00
10720;BME280;5411;58.386;15.560;2023-01-25T07:54:27;101262.44;;;5.70;100.00
10720;BME280;5411;58.386;15.560;2023-01-25T07:56:55;101257.44;;;5.67;100.00
10720;BME280;5411;58.386;15.560;2023-01-25T07:59:24;101255.06;;;5.64;100.00
10720;BME280;5411;58.386;15.560;2023-01-25T08:02:03;101256.50;;;5.59;100.00
10720;BME280;5411;58.386;15.560;2023-01-25T08:04:31;101260.16;;;5.58;100.00
10720;BME280;5411;58.386;15.560;2023-01-25T08:07:00;101267.13;;;5.59;100.00
10720;BME280;5411;58.386;15.560;2023-01-25T08:09:41;101265.59;;;5.56;100.00
10720;BME280;5411;58.386;15.560;2023-01-25T08:12:10;101267.41;;;5.56;100.00
10720;BME280;5411;58.386;15.560;2023-01-25T08:14:41;101259.75;;;5.53;100.00
10720;BME280;5411;58.386;15.560;2023-01-25T08:17:20;101260.16;;;5.58;100.00
10720;BME280;5411;58.386;15.560;2023-01-25T08:22:35;101258.00;;;5.61;100.00
10720;BME280;5411;58.386;15.560;2023-01-25T08:25:06;101264.00;;;5.63;100.00
10720;BME280;5411;58.386;15.560;2023-01-25T08:27:35;101255.91;;;5.65;100.00
10720;BME280;5411;58.386;15.560;2023-01-25T08:30:05;101252.81;;;5.69;100.00
10720;BME280;5411;58.386;15.560;2023-01-25T08:32:34;101242.41;;;5.76;100.00
10720;BME280;5411;58.386;15.560;2023-01-25T08:35:04;101237.34;;;5.83;100.00
10720;BME280;5411;58.386;15.560;2023-01-25T08:37:34;101230.63;;;5.88;100.00
10720;BME280;5411;58.386;15.560;2023-01-25T08:40:05;101228.66;;;5.90;100.00
10720;BME280;5411;58.386;15.560;2023-01-25T08:42:48;101237.16;;;5.94;100.00
10720;BME280;5411;58.386;15.560;2023-01-25T08:45:16;101232.53;;;5.96;100.00
10720;BME280;5411;58.386;15.560;2023-01-25T08:47:45;101235.88;;;5.98;100.00
10720;BME280;5411;58.386;15.560;2023-01-25T08:50:14;101241.84;;;6.00;100.00
10720;BME280;5411;58.386;15.560;2023-01-25T08:52:42;101238.34;;;5.99;100.00
10720;BME280;5411;58.386;15.560;2023-01-25T08:55:14;101233.22;;;5.98;100.00
10720;BME280;5411;58.386;15.560;2023-01-25T08:57:42;101228.50;;;5.92;100.00
10720;BME280;5411;58.386;15.560;2023-01-25T09:00:12;101235.19;;;5.96;100.00
10720;BME280;5411;58.386;15.560;2023-01-25T09:02:41;101225.41;;;5.96;100.00
10720;BME280;5411;58.386;15.560;2023-01-25T09:05:09;101220.53;;;5.92;100.00
10720;BME280;5411;58.386;15.560;2023-01-25T09:07:38;101224.88;;;5.93;100.00
10720;BME280;5411;58.386;15.560;2023-01-25T09:10:07;101223.88;;;5.94;100.00
10720;BME280;5411;58.386;15.560;2023-01-25T09:12:39;101218.47;;;5.86;100.00
10720;BME280;5411;58.386;15.560;2023-01-25T09:15:08;101221.94;;;5.86;100.00
10720;BME280;5411;58.386;15.560;2023-01-25T09:17:37;101234.81;;;5.91;100.00
10720;BME280;5411;58.386;15.560;2023-01-25T09:20:07;101229.63;;;5.89;100.00
10720;BME280;5411;58.386;15.560;2023-01-25T09:22:36;101217.09;;;5.82;100.00
10720;BME280;5411;58.386;15.560;2023-01-25T09:25:06;101215.56;;;5.79;100.00
10720;BME280;5411;58.386;15.560;2023-01-25T09:27:35;101203.56;;;5.75;100.00
10720;BME280;5411;58.386;15.560;2023-01-25T09:30:07;101197.75;;;5.71;100.00
10720;BME280;5411;58.386;15.560;2023-01-25T09:32:44;101208.66;;;5.68;100.00
10720;BME280;5411;58.386;15.560;2023-01-25T09:35:12;101209.50;;;5.69;100.00
10720;BME280;5411;58.386;15.560;2023-01-25T09:37:41;101206.84;;;5.69;100.00
10720;BME280;5411;58.386;15.560;2023-01-25T09:40:17;101211.47;;;5.67;100.00
10720;BME280;5411;58.386;15.560;2023-01-25T09:42:58;101213.44;;;5.65;100.00
10720;BME280;5411;58.386;15.560;2023-01-25T09:45:33;101197.56;;;5.55;100.00
10720;BME280;5411;58.386;15.560;2023-01-25T09:48:09;101202.03;;;5.55;100.00
10720;BME280;5411;58.386;15.560;2023-01-25T09:50:48;101189.06;;;5.52;100.00
10720;BME280;5411;58.386;15.560;2023-01-25T09:53:31;101199.00;;;5.50;100.00
10720;BME280;5411;58.386;15.560;2023-01-25T09:56:03;101199.13;;;5.48;100.00
10720;BME280;5411;58.386;15.560;2023-01-25T09:58:39;101193.00;;;5.48;100.00
10720;BME280;5411;58.386;15.560;2023-01-25T10:01:20;101191.19;;;5.48;100.00
10720;BME280;5411;58.386;15.560;2023-01-25T10:04:09;101199.81;;;5.50;100.00
10720;BME280;5411;58.386;15.560;2023-01-25T10:06:41;101190.34;;;5.48;100.00
10720;BME280;5411;58.386;15.560;2023-01-25T10:09:32;101189.69;;;5.46;100.00
10720;BME280;5411;58.386;15.560;2023-01-25T10:12:12;101187.03;;;5.46;100.00
10720;BME280;5411;58.386;15.560;2023-01-25T10:17:34;101164.78;;;5.47;100.00
10720;BME280;5411;58.386;15.560;2023-01-25T10:20:14;101156.00;;;5.46;100.00
10720;BME280;5411;58.386;15.560;2023-01-25T10:22:49;101160.72;;;5.52;100.00
10720;BME280;5411;58.386;15.560;2023-01-25T10:25:24;101155.56;;;5.51;100.00
10720;BME280;5411;58.386;15.560;2023-01-25T10:28:07;101140.47;;;5.51;100.00
10720;BME280;5411;58.386;15.560;2023-01-25T10:30:39;101131.22;;;5.55;100.00
10720;BME280;5411;58.386;15.560;2023-01-25T10:33:14;101127.88;;;5.53;100.00
10720;BME280;5411;58.386;15.560;2023-01-25T10:35:44;101132.06;;;5.56;100.00
10720;BME280;5411;58.386;15.560;2023-01-25T10:38:17;101127.63;;;5.47;100.00
10720;BME280;5411;58.386;15.560;2023-01-25T10:40:55;101131.81;;;5.49;100.00
10720;BME280;5411;58.386;15.560;2023-01-25T10:43:26;101132.50;;;5.51;100.00
10720;BME280;5411;58.386;15.560;2023-01-25T10:45:57;101129.31;;;5.48;100.00
10720;BME280;5411;58.386;15.560;2023-01-25T10:48:30;101128.03;;;5.52;100.00
10720;BME280;5411;58.386;15.560;2023-01-25T10:51:03;101124.84;;;5.48;100.00
10720;BME280;5411;58.386;15.560;2023-01-25T10:53:34;101120.44;;;5.39;100.00
10720;BME280;5411;58.386;15.560;2023-01-25T10:56:15;101109.69;;;5.41;100.00
10720;BME280;5411;58.386;15.560;2023-01-25T10:58:48;101100.44;;;5.45;100.00
10720;BME280;5411;58.386;15.560;2023-01-25T11:01:28;101103.94;;;5.45;100.00
10720;BME280;5411;58.386;15.560;2023-01-25T11:04:00;101092.31;;;5.46;100.00
10720;BME280;5411;58.386;15.560;2023-01-25T11:06:32;101075.63;;;5.54;100.00
10720;BME280;5411;58.386;15.560;2023-01-25T11:09:29;101065.22;;;5.60;100.00
10720;BME280;5411;58.386;15.560;2023-01-25T11:11:59;101075.78;;;5.70;100.00
10720;BME280;5411;58.386;15.560;2023-01-25T11:14:29;101056.72;;;5.74;100.00
10720;BME280;5411;58.386;15.560;2023-01-25T11:16:59;101061.72;;;5.78;100.00
10720;BME280;5411;58.386;15.560;2023-01-25T11:19:33;101051.63;;;5.81;100.00
10720;BME280;5411;58.386;15.560;2023-01-25T11:22:03;101045.88;;;5.86;100.00
10720;BME280;5411;58.386;15.560;2023-01-25T11:24:34;101053.66;;;5.87;100.00
10720;BME280;5411;58.386;15.560;2023-01-25T11:27:16;101058.31;;;5.85;100.00
10720;BME280;5411;58.386;15.560;2023-01-25T11:30:07;101052.47;;;5.82;100.00
10720;BME280;5411;58.386;15.560;2023-01-25T11:32:38;101047.31;;;5.80;100.00
10720;BME280;5411;58.386;15.560;2023-01-25T11:35:13;101037.53;;;5.81;100.00
10720;BME280;5411;58.386;15.560;2023-01-25T11:37:53;101042.31;;;5.77;100.00
10720;BME280;5411;58.386;15.560;2023-01-25T11:40:35;101043.16;;;5.78;100.00
10720;BME280;5411;58.386;15.560;2023-01-25T11:43:15;101037.31;;;5.74;100.00
10720;BME280;5411;58.386;15.560;2023-01-25T11:45:56;101038.63;;;5.70;100.00
10720;BME280;5411;58.386;15.560;2023-01-25T11:48:51;101038.91;;;5.67;100.00
10720;BME280;5411;58.386;15.560;2023-01-25T11:55:15;101032.09;;;5.64;100.00
10720;BME280;5411;58.386;15.560;2023-01-25T11:58:02;101036.72;;;5.62;100.00
10720;BME280;5411;58.386;15.560;2023-01-25T12:00:42;101035.72;;;5.63;100.00
10720;BME280;5411;58.386;15.560;2023-01-25T12:03:45;101037.69;;;5.61;100.00
10720;BME280;5411;58.386;15.560;2023-01-25T12:06:21;101029.88;;;5.60;100.00
10720;BME280;5411;58.386;15.560;2023-01-25T12:09:10;101039.03;;;5.57;100.00
10720;BME280;5411;58.386;15.560;2023-01-25T12:11:55;101032.03;;;5.56;100.00
10720;BME280;5411;58.386;15.560;2023-01-25T12:14:40;101013.47;;;5.56;100.00
10720;BME280;5411;58.386;15.560;2023-01-25T12:17:24;101018.09;;;5.54;100.00
10720;BME280;5411;58.386;15.560;2023-01-25T12:20:20;101014.75;;;5.52;100.00
10720;BME280;5411;58.386;15.560;2023-01-25T12:23:25;101012.41;;;5.49;100.00
10720;BME280;5411;58.386;15.560;2023-01-25T12:26:09;101021.66;;;5.45;100.00
10720;BME280;5411;58.386;15.560;2023-01-25T12:28:45;101015.97;;;5.40;100.00
10720;BME280;5411;58.386;15.560;2023-01-25T12:31:18;101008.31;;;5.37;100.00
10720;BME280;5411;58.386;15.560;2023-01-25T12:33:52;101021.59;;;5.37;100.00
10720;BME280;5411;58.386;15.560;2023-01-25T12:36:27;101035.16;;;5.34;100.00
10720;BME280;5411;58.386;15.560;2023-01-25T12:39:02;101028.66;;;5.28;100.00
10720;BME280;5411;58.386;15.560;2023-01-25T12:41:38;101028.66;;;5.28;100.00
10720;BME280;5411;58.386;15.560;2023-01-25T12:44:16;101038.28;;;5.29;100.00
10720;BME280;5411;58.386;15.560;2023-01-25T12:46:51;101039.41;;;5.27;100.00
10720;BME280;5411;58.386;15.560;2023-01-25T12:49:27;101026.28;;;5.25;100.00
10720;BME280;5411;58.386;15.560;2023-01-25T12:52:00;101031.22;;;5.20;100.00
10720;BME280;5411;58.386;15.560;2023-01-25T12:54:34;101045.63;;;5.18;100.00
10720;BME280;5411;58.386;15.560;2023-01-25T12:57:14;101036.59;;;5.11;100.00
10720;BME280;5411;58.386;15.560;2023-01-25T13:11:11;101001.44;;;5.09;100.00
10720;BME280;5411;58.386;15.560;2023-01-25T13:13:47;100996.97;;;5.09;100.00
10720;BME280;5411;58.386;15.560;2023-01-25T13:16:27;100991.50;;;5.11;100.00
10720;BME280;5411;58.386;15.560;2023-01-25T13:18:58;100992.34;;;5.11;100.00
10720;BME280;5411;58.386;15.560;2023-01-25T13:21:44;100979.22;;;5.10;100.00
10720;BME280;5411;58.386;15.560;2023-01-25T13:24:19;100974.75;;;5.10;100.00
10720;BME280;5411;58.386;15.560;2023-01-25T13:27:03;100972.94;;;5.11;100.00
10720;BME280;5411;58.386;15.560;2023-01-25T13:29:57;100979.09;;;5.11;100.00
10720;BME280;5411;58.386;15.560;2023-01-25T13:35:38;100960.66;;;5.10;100.00
10720;BME280;5411;58.386;15.560;2023-01-25T13:38:38;100959.97;;;5.08;100.00
10720;BME280;5411;58.386;15.560;2023-01-25T13:41:12;100947.72;;;5.07;100.00
10720;BME280;5411;58.386;15.560;2023-01-25T13:43:47;100953.19;;;5.05;100.00
10720;BME280;5411;58.386;15.560;2023-01-25T13:46:21;100939.09;;;5.05;100.00
10720;BME280;5411;58.386;15.560;2023-01-25T13:49:12;100931.28;;;5.03;100.00
10720;BME280;5411;58.386;15.560;2023-01-25T13:51:53;100936.59;;;5.03;100.00
10720;BME280;5411;58.386;15.560;2023-01-25T13:54:23;100939.53;;;5.00;100.00
10720;BME280;5411;58.386;15.560;2023-01-25T13:57:02;100933.56;;;4.98;100.00